createdAt,value
2023-04-08T00:02:18.665Z,46.40
2023-04-08T00:04:48.929Z,44.13
2023-04-08T00:07:16.562Z,43.45
2023-04-08T00:09:44.199Z,45.28
2023-04-08T00:12:11.749Z,48.10
2023-04-08T00:14:41.677Z,58.90
2023-04-08T00:17:09.216Z,48.63
2023-04-08T00:19:36.901Z,53.72
2023-04-08T00:22:04.425Z,53.38
2023-04-08T00:24:32.713Z,49.00
2023-04-08T00:27:02.974Z,50.20
2023-04-08T00:29:31.040Z,52.40
2023-04-08T00:31:58.346Z,50.63
2023-04-08T00:34:26.498Z,59.85
2023-04-08T00:36:54.387Z,63.40
2023-04-08T00:39:22.022Z,62.67
2023-04-08T00:41:49.347Z,56.13
2023-04-08T00:44:17.684Z,50.78
2023-04-08T00:46:45.998Z,50.95
2023-04-08T00:49:13.728Z,52.15
2023-04-08T00:51:41.139Z,48.20
2023-04-08T00:54:08.873Z,50.97
2023-04-08T00:56:36.934Z,48.38
2023-04-08T00:59:05.466Z,51.92
2023-04-08T01:01:33.018Z,60.53
2023-04-08T01:04:15.311Z,39.75
2023-04-08T01:06:58.963Z,39.95
2023-04-08T01:09:32.666Z,32.55
2023-04-08T01:12:06.205Z,33.92
2023-04-08T01:14:39.151Z,32.70
2023-04-08T01:17:07.519Z,32.08
2023-04-08T01:19:40.233Z,38.95
2023-04-08T01:22:16.281Z,37.70
2023-04-08T01:24:45.850Z,37.80
2023-04-08T01:27:17.108Z,48.92
2023-04-08T01:29:45.872Z,43.30
2023-04-08T01:32:14.619Z,43.78
2023-04-08T01:34:43.314Z,46.72
2023-04-08T01:37:12.643Z,42.70
2023-04-08T01:39:42.543Z,41.55
2023-04-08T01:42:13.969Z,43.97
2023-04-08T01:44:43.128Z,49.05
2023-04-08T01:47:13.590Z,43.58
2023-04-08T01:49:43.326Z,44.25
2023-04-08T01:52:11.857Z,45.40
2023-04-08T01:54:39.581Z,47.03
2023-04-08T01:57:09.772Z,42.97
2023-04-08T01:59:40.500Z,44.60
2023-04-08T02:02:10.124Z,37.42
2023-04-08T02:04:39.239Z,42.60
2023-04-08T02:07:09.258Z,39.55
2023-04-08T02:09:36.934Z,41.72
2023-04-08T02:12:04.670Z,41.47
2023-04-08T02:14:35.744Z,41.22
2023-04-08T02:17:24.994Z,40.17
2023-04-08T02:20:08.009Z,42.38
2023-04-08T02:23:11.297Z,38.95
2023-04-08T02:25:43.436Z,40.85
2023-04-08T02:28:11.785Z,39.17
2023-04-08T02:30:44.355Z,38.25
2023-04-08T02:33:14.370Z,38.10
2023-04-08T02:35:42.588Z,36.05
2023-04-08T02:38:10.967Z,35.78
2023-04-08T02:40:38.884Z,33.83
2023-04-08T02:43:06.444Z,34.65
2023-04-08T02:45:41.053Z,34.30
2023-04-08T02:48:09.655Z,34.78
2023-04-08T02:50:37.790Z,34.35
2023-04-08T02:53:06.252Z,35.25
2023-04-08T02:55:35.019Z,33.72
2023-04-08T02:58:03.565Z,31.08
2023-04-08T03:00:31.657Z,31.77
2023-04-08T03:03:00.530Z,33.47
2023-04-08T03:05:30.584Z,33.40
2023-04-08T03:07:58.726Z,33.92
2023-04-08T03:10:26.569Z,33.47
2023-04-08T03:12:53.877Z,33.13
2023-04-08T03:15:22.185Z,35.10
2023-04-08T03:17:49.540Z,35.13
2023-04-08T03:20:17.333Z,35.90
2023-04-08T03:22:44.931Z,35.63
2023-04-08T03:25:12.603Z,35.60
2023-04-08T03:27:39.927Z,34.33
2023-04-08T03:30:08.254Z,33.90
2023-04-08T03:32:36.090Z,34.35
2023-04-08T03:35:04.630Z,34.10
2023-04-08T03:37:32.472Z,34.35
2023-04-08T03:40:00.220Z,35.47
2023-04-08T03:42:27.801Z,36.20
2023-04-08T03:44:55.660Z,35.03
2023-04-08T03:47:23.108Z,33.95
2023-04-08T03:49:53.748Z,36.33
2023-04-08T03:52:23.410Z,40.10
2023-04-08T03:54:51.151Z,37.08
2023-04-08T03:57:18.595Z,35.30
2023-04-08T03:59:46.317Z,34.78
2023-04-08T04:02:17.229Z,35.38
2023-04-08T04:04:45.564Z,33.58
2023-04-08T04:07:12.889Z,34.78
2023-04-08T04:09:46.368Z,35.88
2023-04-08T04:12:13.742Z,33.83
2023-04-08T04:14:45.800Z,33.85
2023-04-08T04:17:21.238Z,35.05
2023-04-08T04:19:50.087Z,36.33
2023-04-08T04:22:20.031Z,37.20
2023-04-08T04:24:49.798Z,36.38
2023-04-08T04:27:19.074Z,35.05
2023-04-08T04:29:46.713Z,33.70
2023-04-08T04:32:14.012Z,39.97
2023-04-08T04:34:43.181Z,37.03
2023-04-08T04:37:12.185Z,37.67
2023-04-08T04:39:41.222Z,37.08
2023-04-08T04:42:08.570Z,43.65
2023-04-08T04:44:36.493Z,38.28
2023-04-08T04:47:04.884Z,34.65
2023-04-08T04:49:32.516Z,34.20
2023-04-08T04:51:59.826Z,45.42
2023-04-08T04:54:27.490Z,45.35
2023-04-08T04:56:54.784Z,47.40
2023-04-08T04:59:23.459Z,48.20
2023-04-08T05:01:52.284Z,47.05
2023-04-08T05:04:24.717Z,45.08
2023-04-08T05:06:52.099Z,44.42
2023-04-08T05:09:19.759Z,41.30
2023-04-08T05:11:47.083Z,40.65
2023-04-08T05:14:14.622Z,41.55
2023-04-08T05:16:41.898Z,46.25
2023-04-08T05:19:09.730Z,40.47
2023-04-08T05:21:37.221Z,34.38
2023-04-08T05:24:05.186Z,39.25
2023-04-08T05:26:33.156Z,35.67
2023-04-08T05:29:00.799Z,36.15
2023-04-08T05:31:28.482Z,36.17
2023-04-08T05:33:56.376Z,36.60
2023-04-08T05:36:23.748Z,36.80
2023-04-08T05:38:52.698Z,39.50
2023-04-08T05:41:21.632Z,36.10
2023-04-08T05:43:49.435Z,38.17
2023-04-08T05:46:16.741Z,33.50
2023-04-08T05:48:44.337Z,38.28
2023-04-08T05:51:15.602Z,38.42
2023-04-08T05:53:43.222Z,36.13
2023-04-08T05:56:10.563Z,39.58
2023-04-08T05:58:38.189Z,34.03
2023-04-08T06:01:07.593Z,36.03
2023-04-08T06:03:37.084Z,38.15
2023-04-08T06:06:04.712Z,36.35
2023-04-08T06:08:32.314Z,39.08
2023-04-08T06:10:59.650Z,36.00
2023-04-08T06:13:27.348Z,36.10
2023-04-08T06:15:54.754Z,36.45
2023-04-08T06:18:22.520Z,36.75
2023-04-08T06:20:50.829Z,36.30
2023-04-08T06:23:18.923Z,33.97
2023-04-08T06:25:46.407Z,35.97
2023-04-08T06:28:14.442Z,35.95
2023-04-08T06:30:41.751Z,34.40
2023-04-08T06:33:09.653Z,33.63
2023-04-08T06:35:38.057Z,29.92
2023-04-08T06:38:05.855Z,30.35
2023-04-08T06:40:33.580Z,31.77
2023-04-08T06:43:01.508Z,36.33
2023-04-08T06:45:35.796Z,30.33
2023-04-08T06:48:03.676Z,40.85
2023-04-08T06:50:31.240Z,33.42
2023-04-08T06:52:58.889Z,29.40
2023-04-08T06:55:26.655Z,28.52
2023-04-08T06:57:54.224Z,25.33
2023-04-08T07:00:21.712Z,26.23
2023-04-08T07:02:50.966Z,25.90
2023-04-08T07:05:18.744Z,24.42
2023-04-08T07:07:46.529Z,26.48
2023-04-08T07:10:13.839Z,23.60
2023-04-08T07:12:42.299Z,24.13
2023-04-08T07:15:10.163Z,25.05
2023-04-08T07:17:37.992Z,22.42
2023-04-08T07:20:08.242Z,20.30
2023-04-08T07:22:36.232Z,22.58
2023-04-08T07:25:03.725Z,26.77
2023-04-08T07:27:31.574Z,22.10
2023-04-08T07:29:58.858Z,20.60
2023-04-08T07:32:28.321Z,18.65
2023-04-08T07:34:56.832Z,22.77
2023-04-08T07:37:24.556Z,25.45
2023-04-08T07:39:53.657Z,19.60
2023-04-08T07:42:24.150Z,23.58
2023-04-08T07:44:53.097Z,25.17
2023-04-08T07:47:20.802Z,21.40
2023-04-08T07:49:48.580Z,25.98
2023-04-08T07:52:16.436Z,24.63
2023-04-08T07:54:43.803Z,23.00
2023-04-08T07:57:11.434Z,28.23
2023-04-08T07:59:38.895Z,26.02
2023-04-08T08:02:07.108Z,28.92
2023-04-08T08:04:34.914Z,29.58
2023-04-08T08:07:03.079Z,28.42
2023-04-08T08:09:32.126Z,27.85
2023-04-08T08:11:59.775Z,31.15
2023-04-08T08:14:27.230Z,26.38
2023-04-08T08:16:54.973Z,26.23
2023-04-08T08:19:23.503Z,25.23
2023-04-08T08:21:52.390Z,25.42
2023-04-08T08:24:19.735Z,26.58
2023-04-08T08:26:49.370Z,25.30
2023-04-08T08:29:17.311Z,27.02
2023-04-08T08:31:45.064Z,46.97
2023-04-08T08:34:13.647Z,55.35
2023-04-08T08:36:43.794Z,77.03
2023-04-08T08:39:11.203Z,28.45
2023-04-08T08:41:39.438Z,26.85
2023-04-08T08:44:09.120Z,26.10
2023-04-08T08:46:45.218Z,29.90
2023-04-08T08:49:13.069Z,28.58
2023-04-08T08:51:42.812Z,31.25
2023-04-08T08:54:10.246Z,29.52
2023-04-08T08:56:38.008Z,31.25
2023-04-08T08:59:06.437Z,27.45
2023-04-08T09:01:37.934Z,27.88
2023-04-08T09:04:18.567Z,26.58
2023-04-08T09:06:49.024Z,23.20
2023-04-08T09:09:18.008Z,24.48
2023-04-08T09:11:48.126Z,24.83
2023-04-08T09:14:26.394Z,23.38
2023-04-08T09:16:54.202Z,24.55
2023-04-08T09:19:21.589Z,25.50
2023-04-08T09:22:11.334Z,25.30
2023-04-08T09:24:39.034Z,30.80
2023-04-08T09:27:06.858Z,30.83
2023-04-08T09:29:37.467Z,25.88
2023-04-08T09:32:07.573Z,24.52
2023-04-08T09:34:35.123Z,24.92
2023-04-08T09:37:02.965Z,26.55
2023-04-08T09:39:32.771Z,25.52
2023-04-08T09:42:06.966Z,27.55
2023-04-08T09:44:38.230Z,24.95
2023-04-08T09:47:14.782Z,25.42
2023-04-08T09:49:50.244Z,24.27
2023-04-08T09:52:28.282Z,26.85
2023-04-08T09:55:08.873Z,25.58
2023-04-08T09:58:11.811Z,24.90
2023-04-08T10:00:50.659Z,19.67
2023-04-08T10:03:37.819Z,21.70
2023-04-08T10:06:08.370Z,25.08
2023-04-08T10:08:36.583Z,39.00
2023-04-08T10:11:04.036Z,29.00
2023-04-08T10:13:32.358Z,91.90
2023-04-08T10:16:19.322Z,44.08
2023-04-08T10:18:47.066Z,27.45
2023-04-08T10:21:32.990Z,26.05
2023-04-08T10:24:06.340Z,25.80
2023-04-08T10:26:38.887Z,24.25
2023-04-08T10:29:32.947Z,26.67
2023-04-08T10:32:01.558Z,26.63
2023-04-08T10:34:31.118Z,26.67
2023-04-08T10:37:02.371Z,26.33
2023-04-08T10:39:31.733Z,28.20
2023-04-08T10:42:02.784Z,29.02
2023-04-08T10:44:30.865Z,28.88
2023-04-08T10:46:58.306Z,27.80
2023-04-08T10:49:33.770Z,27.02
2023-04-08T10:52:01.592Z,30.27
2023-04-08T10:54:29.236Z,26.67
2023-04-08T10:56:56.832Z,28.75
2023-04-08T10:59:30.058Z,30.42
2023-04-08T11:01:58.587Z,29.48
2023-04-08T11:04:27.699Z,29.38
2023-04-08T11:06:55.152Z,30.55
2023-04-08T11:09:22.846Z,29.85
2023-04-08T11:11:52.476Z,29.67
2023-04-08T11:14:22.133Z,34.40
2023-04-08T11:16:49.971Z,29.67
2023-04-08T11:19:20.149Z,30.20
2023-04-08T11:21:49.567Z,29.33
2023-04-08T11:24:18.126Z,32.42
2023-04-08T11:26:45.598Z,31.25
2023-04-08T11:29:17.082Z,31.23
2023-04-08T11:31:44.851Z,40.58
2023-04-08T11:34:12.481Z,34.47
2023-04-08T11:36:42.990Z,32.60
2023-04-08T11:39:12.422Z,30.15
2023-04-08T11:41:43.013Z,30.02
2023-04-08T11:44:10.936Z,29.92
2023-04-08T11:46:38.504Z,30.70
2023-04-08T11:49:08.239Z,66.30
2023-04-08T11:51:55.191Z,29.90
2023-04-08T11:54:32.372Z,31.42
2023-04-08T11:57:00.213Z,32.25
2023-04-08T11:59:29.667Z,31.17
2023-04-08T12:01:57.583Z,30.48
2023-04-08T12:04:25.647Z,28.27
2023-04-08T12:06:53.531Z,27.38
2023-04-08T12:09:21.376Z,28.25
2023-04-08T12:11:48.897Z,27.55
2023-04-08T12:14:16.628Z,31.83
2023-04-08T12:16:44.012Z,27.88
2023-04-08T12:19:11.628Z,31.85
2023-04-08T12:21:39.586Z,30.13
2023-04-08T12:24:07.428Z,31.45
2023-04-08T12:26:34.737Z,40.78
2023-04-08T12:29:02.529Z,37.08
2023-04-08T12:31:29.954Z,39.80
2023-04-08T12:33:57.595Z,35.67
2023-04-08T12:36:25.057Z,35.20
2023-04-08T12:38:52.929Z,34.90
2023-04-08T12:41:21.265Z,32.83
2023-04-08T12:44:08.016Z,30.42
2023-04-08T12:46:35.474Z,30.77
2023-04-08T12:49:05.117Z,28.02
2023-04-08T12:51:33.343Z,29.88
2023-04-08T12:54:01.494Z,30.42
2023-04-08T12:56:28.907Z,45.03
2023-04-08T12:58:57.857Z,31.98
2023-04-08T13:01:45.418Z,29.70
2023-04-08T13:04:13.939Z,30.33
2023-04-08T13:06:42.954Z,31.90
2023-04-08T13:09:11.361Z,48.85
2023-04-08T13:11:38.828Z,32.63
2023-04-08T13:14:08.980Z,29.85
2023-04-08T13:16:37.780Z,30.48
2023-04-08T13:19:06.242Z,29.13
2023-04-08T13:21:33.647Z,25.17
2023-04-08T13:24:02.664Z,30.92
2023-04-08T13:26:30.139Z,25.08
2023-04-08T13:28:58.615Z,27.23
2023-04-08T13:31:26.716Z,29.17
2023-04-08T13:33:57.585Z,27.40
2023-04-08T13:36:26.168Z,26.45
2023-04-08T13:38:53.903Z,26.83
2023-04-08T13:41:21.421Z,24.90
2023-04-08T13:43:50.650Z,27.20
2023-04-08T13:46:18.414Z,25.33
2023-04-08T13:48:46.634Z,30.55
2023-04-08T13:51:14.113Z,24.88
2023-04-08T13:53:41.855Z,27.33
2023-04-08T13:56:09.174Z,28.00
2023-04-08T13:58:37.234Z,30.42
2023-04-08T14:01:04.577Z,31.33
2023-04-08T14:03:32.589Z,27.52
2023-04-08T14:06:01.676Z,27.17
2023-04-08T14:08:29.699Z,30.65
2023-04-08T14:10:59.410Z,28.60
2023-04-08T14:13:28.068Z,31.42
2023-04-08T14:15:58.758Z,29.90
2023-04-08T14:18:29.381Z,29.85
2023-04-08T14:20:59.863Z,33.88
2023-04-08T14:23:27.515Z,36.30
2023-04-08T14:25:55.174Z,35.10
2023-04-08T14:28:22.941Z,43.35
2023-04-08T14:30:50.350Z,38.45
2023-04-08T14:33:18.011Z,41.80
2023-04-08T14:35:45.324Z,37.72
2023-04-08T14:38:12.949Z,37.22
2023-04-08T14:40:40.786Z,34.60
2023-04-08T14:43:08.534Z,34.20
2023-04-08T14:45:35.902Z,34.53
2023-04-08T14:48:04.100Z,31.00
2023-04-08T14:50:31.931Z,32.53
2023-04-08T14:53:01.301Z,32.03
2023-04-08T14:55:30.235Z,38.60
2023-04-08T14:57:59.844Z,33.83
2023-04-08T15:00:28.703Z,33.13
2023-04-08T15:02:56.744Z,34.25
2023-04-08T15:05:24.171Z,40.30
2023-04-08T15:07:51.950Z,38.63
2023-04-08T15:10:19.258Z,38.50
2023-04-08T15:12:47.688Z,34.10
2023-04-08T15:15:15.059Z,36.47
2023-04-08T15:17:42.779Z,32.63
2023-04-08T15:20:11.185Z,34.05
2023-04-08T15:22:40.764Z,36.67
2023-04-08T15:25:09.350Z,35.13
2023-04-08T15:27:37.733Z,31.23
2023-04-08T15:30:10.675Z,31.10
2023-04-08T15:32:39.668Z,36.33
2023-04-08T15:35:08.019Z,36.53
2023-04-08T15:37:36.595Z,41.70
2023-04-08T15:40:07.630Z,30.92
2023-04-08T15:42:37.320Z,28.08
2023-04-08T15:45:04.990Z,30.42
2023-04-08T15:47:35.398Z,31.88
2023-04-08T15:50:03.122Z,32.78
2023-04-08T15:52:32.910Z,32.08
2023-04-08T15:55:04.089Z,32.75
2023-04-08T15:57:34.094Z,36.22
2023-04-08T16:00:01.394Z,33.65
2023-04-08T16:02:29.889Z,36.05
2023-04-08T16:04:57.497Z,34.63
2023-04-08T16:07:29.435Z,34.25
2023-04-08T16:10:08.282Z,31.55
2023-04-08T16:12:39.134Z,33.03
2023-04-08T16:15:09.928Z,32.22
2023-04-08T16:17:50.100Z,32.55
2023-04-08T16:20:19.819Z,31.02
2023-04-08T16:22:50.462Z,32.72
2023-04-08T16:25:19.528Z,31.98
2023-04-08T16:28:01.527Z,33.53
2023-04-08T16:30:31.517Z,36.10
2023-04-08T16:32:59.962Z,36.72
2023-04-08T16:35:27.406Z,33.17
2023-04-08T16:37:55.629Z,33.35
2023-04-08T16:40:23.173Z,35.05
2023-04-08T16:42:51.189Z,34.75
2023-04-08T16:45:21.766Z,51.60
2023-04-08T16:47:58.213Z,37.80
2023-04-08T16:50:28.743Z,34.97
2023-04-08T16:52:57.707Z,33.80
2023-04-08T16:55:25.806Z,35.05
2023-04-08T16:57:54.824Z,30.13
2023-04-08T17:00:22.942Z,35.78
2023-04-08T17:02:50.978Z,33.30
2023-04-08T17:05:18.493Z,34.92
2023-04-08T17:07:48.248Z,33.08
2023-04-08T17:10:17.344Z,28.63
2023-04-08T17:12:46.640Z,38.30
2023-04-08T17:15:15.842Z,28.70
2023-04-08T17:17:44.964Z,32.15
2023-04-08T17:20:12.932Z,37.30
2023-04-08T17:22:40.786Z,36.72
2023-04-08T17:25:08.533Z,28.15
2023-04-08T17:27:36.660Z,28.90
2023-04-08T17:30:04.519Z,29.75
2023-04-08T17:32:32.378Z,30.88
2023-04-08T17:34:59.672Z,30.98
2023-04-08T17:37:52.029Z,34.03
2023-04-08T17:40:19.670Z,34.40
2023-04-08T17:42:47.609Z,33.55
2023-04-08T17:45:15.113Z,78.53
2023-04-08T17:47:44.214Z,50.78
2023-04-08T17:50:12.019Z,43.72
2023-04-08T17:52:44.355Z,45.47
2023-04-08T17:55:12.996Z,87.25
2023-04-08T17:57:41.178Z,43.38
2023-04-08T18:03:12.573Z,64.68
2023-04-08T18:05:40.514Z,40.60
2023-04-08T18:08:13.060Z,63.80
2023-04-08T18:11:11.914Z,56.67
2023-04-08T18:13:39.729Z,48.20
2023-04-08T18:16:07.454Z,50.10
2023-04-08T18:18:37.058Z,50.15
2023-04-08T18:21:05.717Z,41.60
2023-04-08T18:23:35.123Z,48.60
2023-04-08T18:26:02.608Z,45.70
2023-04-08T18:28:32.234Z,38.50
2023-04-08T18:31:00.029Z,40.95
2023-04-08T18:33:28.452Z,72.40
2023-04-08T18:35:57.710Z,71.60
2023-04-08T18:38:29.309Z,55.63
2023-04-08T18:40:56.879Z,54.65
2023-04-08T18:43:25.442Z,54.63
2023-04-08T18:45:52.901Z,59.15
2023-04-08T18:48:21.363Z,44.80
2023-04-08T18:50:49.673Z,76.35
2023-04-08T18:53:18.450Z,56.80
2023-04-08T18:55:51.836Z,58.60
2023-04-08T18:58:21.441Z,46.83
2023-04-08T19:00:49.394Z,57.45
2023-04-08T19:03:17.374Z,49.63
2023-04-08T19:05:49.089Z,46.63
2023-04-08T19:08:18.144Z,54.33
2023-04-08T19:10:45.627Z,72.57
2023-04-08T19:13:14.333Z,56.30
2023-04-08T19:15:43.290Z,59.47
2023-04-08T19:18:12.140Z,61.67
2023-04-08T19:20:40.155Z,70.15
2023-04-08T19:23:08.141Z,53.30
2023-04-08T19:25:37.492Z,48.83
2023-04-08T19:28:09.170Z,52.97
2023-04-08T19:30:38.149Z,50.58
2023-04-08T19:33:07.979Z,51.83
2023-04-08T19:35:35.611Z,51.97
2023-04-08T19:38:06.375Z,49.08
2023-04-08T19:40:35.267Z,48.95
2023-04-08T19:43:04.431Z,64.72
2023-04-08T19:45:34.293Z,86.07
2023-04-08T19:48:02.579Z,231.52
2023-04-08T19:50:31.499Z,102.03
2023-04-08T19:53:02.765Z,72.22
2023-04-08T19:55:37.618Z,64.32
2023-04-08T19:58:18.350Z,47.10
2023-04-08T20:00:46.515Z,49.78
2023-04-08T20:03:15.745Z,41.92
2023-04-08T20:05:46.099Z,51.17
2023-04-08T20:08:14.234Z,41.72
2023-04-08T20:10:41.722Z,39.25
2023-04-08T20:13:16.125Z,43.40
2023-04-08T20:15:45.194Z,37.97
2023-04-08T20:18:15.549Z,41.50
2023-04-08T20:20:44.380Z,38.00
2023-04-08T20:23:13.872Z,40.72
2023-04-08T20:25:42.660Z,39.28
2023-04-08T20:28:11.790Z,37.05
2023-04-08T20:30:41.003Z,34.58
2023-04-08T20:33:08.597Z,35.40
2023-04-08T20:35:37.952Z,39.33
2023-04-08T20:38:06.119Z,42.80
2023-04-08T20:40:36.020Z,44.05
2023-04-08T20:43:05.337Z,43.85
2023-04-08T20:45:34.618Z,42.75
2023-04-08T20:48:02.431Z,40.72
2023-04-08T20:50:32.230Z,37.72
2023-04-08T20:53:00.836Z,36.28
2023-04-08T20:55:28.157Z,41.38
2023-04-08T20:57:55.930Z,38.70
2023-04-08T21:00:26.004Z,36.22
2023-04-08T21:02:53.922Z,40.38
2023-04-08T21:05:22.138Z,39.92
2023-04-08T21:07:49.983Z,38.17
2023-04-08T21:10:18.019Z,36.78
2023-04-08T21:12:48.730Z,33.90
2023-04-08T21:15:16.302Z,35.70
2023-04-08T21:17:44.028Z,36.95
2023-04-08T21:20:12.789Z,35.25
2023-04-08T21:22:41.768Z,64.13
2023-04-08T21:25:09.343Z,46.50
2023-04-08T21:27:38.235Z,41.35
2023-04-08T21:30:06.284Z,37.42
2023-04-08T21:32:36.620Z,36.58
2023-04-08T21:35:04.998Z,36.42
2023-04-08T21:37:32.734Z,37.47
2023-04-08T21:40:01.598Z,37.80
2023-04-08T21:42:34.156Z,36.40
2023-04-08T21:45:04.023Z,32.65
2023-04-08T21:47:32.209Z,34.85
2023-04-08T21:50:01.423Z,34.85
2023-04-08T21:52:30.012Z,34.60
2023-04-08T21:54:57.533Z,34.75
2023-04-08T21:57:25.342Z,32.60
2023-04-08T21:59:52.718Z,35.92
2023-04-08T22:02:21.925Z,35.22
2023-04-08T22:04:49.733Z,37.20
2023-04-08T22:07:17.344Z,34.85
2023-04-08T22:09:44.900Z,37.33
2023-04-08T22:12:12.585Z,36.53
2023-04-08T22:14:39.924Z,33.95
2023-04-08T22:17:07.570Z,36.20
2023-04-08T22:19:36.426Z,36.40
2023-04-08T22:22:08.998Z,37.28
2023-04-08T22:24:37.220Z,37.08
2023-04-08T22:27:04.951Z,39.25
2023-04-08T22:29:32.310Z,39.15
2023-04-08T22:32:00.045Z,39.20
2023-04-08T22:34:27.494Z,42.58
2023-04-08T22:36:55.162Z,42.35
2023-04-08T22:39:26.170Z,45.35
2023-04-08T22:41:54.162Z,50.25
2023-04-08T22:44:21.682Z,46.45
2023-04-08T22:46:49.284Z,66.82
2023-04-08T22:49:16.593Z,59.10
2023-04-08T22:51:44.247Z,51.67
2023-04-08T22:54:11.617Z,50.50
2023-04-08T22:56:39.183Z,45.42
2023-04-08T22:59:06.661Z,45.58
2023-04-08T23:01:34.542Z,41.47
2023-04-08T23:04:03.012Z,46.40
2023-04-08T23:06:31.456Z,49.13
2023-04-08T23:08:58.809Z,48.65
2023-04-08T23:11:27.423Z,48.53
2023-04-08T23:13:54.768Z,43.83
2023-04-08T23:16:26.022Z,45.17
2023-04-08T23:18:53.589Z,48.40
2023-04-08T23:21:21.714Z,49.00
2023-04-08T23:23:49.260Z,45.00
2023-04-08T23:26:19.161Z,43.30
2023-04-08T23:28:47.579Z,48.92
2023-04-08T23:31:15.550Z,50.13
2023-04-08T23:33:42.893Z,47.42
2023-04-08T23:36:11.899Z,67.93
2023-04-08T23:38:39.365Z,53.25
2023-04-08T23:41:08.409Z,43.85
2023-04-08T23:43:36.928Z,42.38
2023-04-08T23:46:04.630Z,43.53
2023-04-08T23:48:31.949Z,42.47
2023-04-08T23:50:59.646Z,40.13
2023-04-08T23:53:27.123Z,41.42
2023-04-08T23:56:07.710Z,41.65
2023-04-08T23:58:35.503Z,41.75
